createdAt,value
2022-09-04T00:02:18.574Z,20.10
2022-09-04T00:04:59.809Z,20.10
2022-09-04T00:07:34.798Z,20.10
2022-09-04T00:10:15.173Z,20.10
2022-09-04T00:12:52.076Z,20.00
2022-09-04T00:15:26.795Z,20.00
2022-09-04T00:18:03.834Z,20.00
2022-09-04T00:20:42.393Z,19.90
2022-09-04T00:23:21.155Z,19.90
2022-09-04T00:26:01.125Z,19.90
2022-09-04T00:28:39.244Z,19.90
2022-09-04T00:31:25.766Z,19.80
2022-09-04T00:34:07.265Z,19.80
2022-09-04T00:36:43.362Z,19.80
2022-09-04T00:39:19.550Z,19.70
2022-09-04T00:42:11.014Z,19.70
2022-09-04T00:45:07.464Z,19.70
2022-09-04T00:48:20.225Z,19.70
2022-09-04T00:51:33.193Z,19.60
2022-09-04T00:54:48.588Z,19.60
2022-09-04T00:58:00.847Z,19.60
2022-09-04T01:00:30.775Z,19.50
2022-09-04T01:03:33.786Z,19.50
2022-09-04T01:06:21.196Z,19.50
2022-09-04T01:09:15.044Z,19.50
2022-09-04T01:12:01.063Z,19.50
2022-09-04T01:14:41.217Z,19.50
2022-09-04T01:17:25.875Z,19.40
2022-09-04T01:20:01.501Z,19.40
2022-09-04T01:23:11.211Z,19.40
2022-09-04T01:26:09.753Z,19.40
2022-09-04T01:28:54.139Z,19.40
2022-09-04T01:31:32.961Z,19.40
2022-09-04T01:34:17.942Z,19.30
2022-09-04T01:36:57.082Z,19.30
2022-09-04T01:39:31.761Z,19.30
2022-09-04T01:42:09.626Z,19.20
2022-09-04T01:44:38.082Z,19.20
2022-09-04T01:47:17.643Z,19.20
2022-09-04T01:49:52.222Z,19.20
2022-09-04T01:52:40.332Z,19.10
2022-09-04T01:55:26.797Z,19.10
2022-09-04T01:58:17.089Z,19.10
2022-09-04T02:00:59.785Z,19.10
2022-09-04T02:03:51.890Z,19.00
2022-09-04T02:06:33.990Z,19.00
2022-09-04T02:09:20.266Z,19.00
2022-09-04T02:11:56.951Z,19.00
2022-09-04T02:14:40.069Z,19.00
2022-09-04T02:17:18.331Z,18.90
2022-09-04T02:20:13.221Z,18.90
2022-09-04T02:22:55.673Z,18.90
2022-09-04T02:25:31.951Z,18.80
2022-09-04T02:28:23.900Z,18.80
2022-09-04T02:31:06.168Z,18.80
2022-09-04T02:33:41.444Z,18.70
2022-09-04T02:36:19.595Z,18.70
2022-09-04T02:39:03.473Z,18.70
2022-09-04T02:41:42.679Z,18.70
2022-09-04T02:44:36.624Z,18.60
2022-09-04T02:47:20.375Z,18.60
2022-09-04T02:50:01.571Z,18.60
2022-09-04T02:53:01.823Z,18.50
2022-09-04T02:55:57.589Z,18.50
2022-09-04T02:58:44.047Z,18.50
2022-09-04T03:01:22.354Z,18.40
2022-09-04T03:04:05.811Z,18.40
2022-09-04T03:06:57.125Z,18.40
2022-09-04T03:09:33.264Z,18.30
2022-09-04T03:12:16.329Z,18.30
2022-09-04T03:14:52.634Z,18.30
2022-09-04T03:17:28.714Z,18.20
2022-09-04T03:20:08.578Z,18.20
2022-09-04T03:22:48.391Z,18.20
2022-09-04T03:25:57.905Z,18.10
2022-09-04T03:28:46.982Z,18.10
2022-09-04T03:31:29.165Z,18.10
2022-09-04T03:34:16.618Z,18.10
2022-09-04T03:37:03.436Z,18.00
2022-09-04T03:39:42.399Z,18.00
2022-09-04T03:42:26.212Z,18.00
2022-09-04T03:45:08.998Z,17.90
2022-09-04T03:47:49.878Z,17.90
2022-09-04T03:50:31.166Z,17.90
2022-09-04T03:53:15.039Z,17.80
2022-09-04T03:56:37.777Z,17.80
2022-09-04T03:59:09.506Z,17.80
2022-09-04T04:01:57.911Z,17.80
2022-09-04T04:05:13.122Z,17.70
2022-09-04T04:07:59.542Z,17.70
2022-09-04T04:10:45.233Z,17.70
2022-09-04T04:14:05.242Z,17.70
2022-09-04T04:16:55.791Z,17.60
2022-09-04T04:19:50.314Z,17.60
2022-09-04T04:22:52.342Z,17.60
2022-09-04T04:25:52.682Z,17.50
2022-09-04T04:28:49.226Z,17.50
2022-09-04T04:31:27.054Z,17.40
2022-09-04T04:34:08.143Z,17.40
2022-09-04T04:36:49.477Z,17.40
2022-09-04T04:39:30.422Z,17.40
2022-09-04T04:42:18.368Z,17.30
2022-09-04T04:45:37.053Z,17.30
2022-09-04T04:48:50.438Z,17.30
2022-09-04T04:51:48.888Z,17.20
2022-09-04T04:54:40.966Z,17.20
2022-09-04T04:57:33.453Z,17.20
2022-09-04T05:00:16.070Z,17.20
2022-09-04T05:03:00.681Z,17.20
2022-09-04T05:05:57.656Z,17.20
2022-09-04T05:08:41.688Z,17.10
2022-09-04T05:11:24.640Z,17.10
2022-09-04T05:14:07.834Z,17.10
2022-09-04T05:16:54.853Z,17.10
2022-09-04T05:19:34.018Z,17.10
2022-09-04T05:22:13.482Z,17.00
2022-09-04T05:24:56.056Z,17.00
2022-09-04T05:27:52.874Z,17.00
2022-09-04T05:30:36.314Z,17.00
2022-09-04T05:33:16.924Z,17.00
2022-09-04T05:35:54.187Z,17.00
2022-09-04T05:38:33.697Z,17.00
2022-09-04T05:41:08.411Z,17.00
2022-09-04T05:44:01.478Z,17.10
2022-09-04T05:46:52.075Z,17.10
2022-09-04T05:49:43.516Z,17.10
2022-09-04T05:52:56.872Z,17.10
2022-09-04T05:56:34.966Z,17.20
2022-09-04T05:59:31.849Z,17.20
2022-09-04T06:02:31.323Z,17.30
2022-09-04T06:05:30.534Z,17.30
2022-09-04T06:08:16.958Z,17.30
2022-09-04T06:11:02.065Z,17.30
2022-09-04T06:13:56.105Z,17.40
2022-09-04T06:17:12.753Z,17.40
2022-09-04T06:20:00.565Z,17.40
2022-09-04T06:22:55.557Z,17.40
2022-09-04T06:25:58.740Z,17.50
2022-09-04T06:28:59.095Z,17.50
2022-09-04T06:32:06.107Z,17.50
2022-09-04T06:35:24.773Z,17.60
2022-09-04T06:38:14.027Z,17.70
2022-09-04T06:41:02.113Z,17.70
2022-09-04T06:43:42.180Z,17.80
2022-09-04T06:46:50.880Z,17.80
2022-09-04T06:49:29.329Z,17.90
2022-09-04T06:52:16.690Z,17.90
2022-09-04T06:54:59.317Z,18.00
2022-09-04T06:57:52.898Z,18.00
2022-09-04T07:00:21.751Z,18.10
2022-09-04T07:03:28.637Z,18.20
2022-09-04T07:06:09.434Z,18.20
2022-09-04T07:09:00.705Z,18.30
2022-09-04T07:11:58.258Z,18.40
2022-09-04T07:14:46.369Z,18.50
2022-09-04T07:17:25.233Z,18.50
2022-09-04T07:20:12.822Z,18.60
2022-09-04T07:23:11.923Z,18.70
2022-09-04T07:25:50.260Z,18.80
2022-09-04T07:28:47.221Z,19.00
2022-09-04T07:31:26.736Z,19.10
2022-09-04T07:34:10.182Z,19.30
2022-09-04T07:36:50.291Z,19.50
2022-09-04T07:39:33.925Z,19.60
2022-09-04T07:42:15.757Z,19.80
2022-09-04T07:44:54.566Z,20.00
2022-09-04T07:47:35.294Z,20.20
2022-09-04T07:50:46.024Z,20.30
2022-09-04T07:53:32.241Z,20.50
2022-09-04T07:56:05.494Z,20.70
2022-09-04T07:58:58.467Z,20.80
2022-09-04T08:01:50.193Z,21.00
2022-09-04T08:05:02.335Z,21.20
2022-09-04T08:08:03.708Z,21.40
2022-09-04T08:10:42.220Z,21.60
2022-09-04T08:13:33.525Z,21.80
2022-09-04T08:16:09.116Z,21.90
2022-09-04T08:19:03.231Z,22.10
2022-09-04T08:21:36.605Z,22.20
2022-09-04T08:24:53.165Z,22.40
2022-09-04T08:27:47.550Z,22.60
2022-09-04T08:30:20.750Z,22.80
2022-09-04T08:33:40.842Z,22.90
2022-09-04T08:36:25.119Z,23.10
2022-09-04T08:39:12.573Z,23.20
2022-09-04T08:42:25.013Z,23.30
2022-09-04T08:45:42.264Z,23.30
2022-09-04T08:48:59.470Z,23.40
2022-09-04T08:52:21.530Z,23.50
2022-09-04T08:55:40.947Z,23.60
2022-09-04T08:58:56.417Z,23.80
2022-09-04T09:02:19.418Z,24.00
2022-09-04T09:05:32.611Z,24.10
2022-09-04T09:08:28.581Z,24.20
2022-09-04T09:12:11.387Z,24.30
2022-09-04T09:15:49.959Z,24.40
2022-09-04T09:18:37.300Z,24.60
2022-09-04T09:21:22.010Z,24.70
2022-09-04T09:24:51.414Z,24.80
2022-09-04T09:28:12.162Z,25.00
2022-09-04T09:31:24.894Z,25.00
2022-09-04T09:34:49.939Z,25.20
2022-09-04T09:38:03.759Z,25.30
2022-09-04T09:41:20.065Z,25.50
2022-09-04T09:44:31.435Z,25.70
2022-09-04T09:47:42.121Z,25.80
2022-09-04T09:50:56.049Z,25.80
2022-09-04T09:54:37.751Z,25.90
2022-09-04T09:58:30.734Z,26.10
2022-09-04T10:01:19.428Z,26.20
2022-09-04T10:04:28.653Z,26.30
2022-09-04T10:08:04.166Z,26.30
2022-09-04T10:11:03.882Z,26.50
2022-09-04T10:14:25.327Z,26.60
2022-09-04T10:17:42.377Z,26.70
2022-09-04T10:20:55.459Z,26.70
2022-09-04T10:24:02.931Z,26.80
2022-09-04T10:27:19.296Z,26.90
2022-09-04T10:30:07.581Z,27.00
2022-09-04T10:33:27.036Z,27.10
2022-09-04T10:36:17.390Z,27.20
2022-09-04T10:39:26.217Z,27.30
2022-09-04T10:42:13.064Z,27.40
2022-09-04T10:45:07.855Z,27.40
2022-09-04T10:48:00.900Z,27.50
2022-09-04T10:51:01.833Z,27.60
2022-09-04T10:54:26.473Z,27.60
2022-09-04T10:57:19.431Z,27.80
2022-09-04T11:00:07.693Z,27.90
2022-09-04T11:03:27.247Z,28.00
2022-09-04T11:06:37.234Z,28.10
2022-09-04T11:09:43.601Z,28.30
2022-09-04T11:12:49.105Z,28.50
2022-09-04T11:15:41.780Z,28.60
2022-09-04T11:18:54.465Z,28.80
2022-09-04T11:22:25.760Z,28.90
2022-09-04T11:25:38.912Z,28.90
2022-09-04T11:28:47.389Z,29.00
2022-09-04T11:31:36.081Z,29.10
2022-09-04T11:34:55.459Z,29.10
2022-09-04T11:38:00.437Z,29.20
2022-09-04T11:41:24.438Z,29.30
2022-09-04T11:44:25.153Z,29.40
2022-09-04T11:47:43.182Z,29.50
2022-09-04T11:50:24.216Z,29.60
2022-09-04T11:53:22.641Z,29.70
2022-09-04T11:56:51.147Z,29.70
2022-09-04T12:00:00.077Z,29.80
2022-09-04T12:03:19.715Z,29.90
2022-09-04T12:06:18.633Z,30.00
2022-09-04T12:09:25.893Z,30.00
2022-09-04T12:12:41.643Z,30.10
2022-09-04T12:16:00.757Z,30.00
2022-09-04T12:19:24.150Z,30.00
2022-09-04T12:22:51.762Z,30.00
2022-09-04T12:25:54.470Z,30.10
2022-09-04T12:29:13.736Z,30.20
2022-09-04T12:32:30.007Z,30.30
2022-09-04T12:36:02.489Z,30.30
2022-09-04T12:39:03.533Z,30.40
2022-09-04T12:41:46.878Z,30.50
2022-09-04T12:44:35.197Z,30.60
2022-09-04T12:47:28.343Z,30.60
2022-09-04T12:50:28.026Z,30.60
2022-09-04T12:53:21.919Z,30.60
2022-09-04T12:56:05.686Z,30.60
2022-09-04T12:59:06.779Z,30.60
2022-09-04T13:01:59.286Z,30.60
2022-09-04T13:04:47.043Z,30.60
2022-09-04T13:07:40.947Z,30.70
2022-09-04T13:10:25.959Z,30.70
2022-09-04T13:13:08.056Z,30.80
2022-09-04T13:15:52.155Z,30.90
2022-09-04T13:18:44.650Z,31.00
2022-09-04T13:21:32.271Z,31.20
2022-09-04T13:24:19.379Z,31.30
2022-09-04T13:27:07.617Z,31.30
2022-09-04T13:30:02.863Z,31.30
2022-09-04T13:33:09.998Z,31.40
2022-09-04T13:36:16.453Z,31.40
2022-09-04T13:39:28.795Z,31.50
2022-09-04T13:42:39.578Z,31.40
2022-09-04T13:45:15.223Z,31.40
2022-09-04T13:47:54.265Z,31.40
2022-09-04T13:50:29.615Z,31.40
2022-09-04T13:53:05.281Z,31.40
2022-09-04T13:55:41.844Z,31.40
2022-09-04T13:58:19.963Z,31.50
2022-09-04T14:00:57.045Z,31.40
2022-09-04T14:03:37.121Z,31.40
2022-09-04T14:06:15.051Z,31.30
2022-09-04T14:08:45.888Z,31.30
2022-09-04T14:12:05.574Z,31.20
2022-09-04T14:15:14.698Z,31.20
2022-09-04T14:18:04.226Z,31.20
2022-09-04T14:20:43.681Z,31.20
2022-09-04T14:23:23.125Z,31.20
2022-09-04T14:25:57.959Z,31.10
2022-09-04T14:28:37.545Z,31.10
2022-09-04T14:31:20.995Z,31.10
2022-09-04T14:33:59.501Z,31.00
2022-09-04T14:36:41.491Z,31.00
2022-09-04T14:39:21.190Z,30.90
2022-09-04T14:42:13.727Z,30.90
2022-09-04T14:45:13.250Z,30.80
2022-09-04T14:47:47.278Z,30.80
2022-09-04T14:50:19.207Z,30.80
2022-09-04T14:52:53.300Z,30.80
2022-09-04T14:55:28.043Z,30.80
2022-09-04T14:58:06.361Z,30.80
2022-09-04T15:00:58.833Z,30.90
2022-09-04T15:03:35.268Z,30.90
2022-09-04T15:06:18.564Z,31.00
2022-09-04T15:08:51.478Z,31.00
2022-09-04T15:11:31.853Z,31.00
2022-09-04T15:14:21.698Z,31.10
2022-09-04T15:16:55.727Z,31.10
2022-09-04T15:19:46.555Z,31.10
2022-09-04T15:22:25.272Z,31.10
2022-09-04T15:25:09.682Z,31.10
2022-09-04T15:27:50.582Z,31.10
2022-09-04T15:30:32.261Z,31.10
2022-09-04T15:33:39.694Z,31.10
2022-09-04T15:36:46.311Z,31.20
2022-09-04T15:39:33.885Z,31.20
2022-09-04T15:42:46.783Z,31.20
2022-09-04T15:45:25.849Z,31.20
2022-09-04T15:48:47.994Z,31.20
2022-09-04T15:51:27.736Z,31.20
2022-09-04T15:54:26.975Z,31.20
2022-09-04T15:57:06.081Z,31.20
2022-09-04T15:59:49.552Z,31.20
2022-09-04T16:02:36.240Z,31.20
2022-09-04T16:05:23.551Z,31.20
2022-09-04T16:08:04.030Z,31.20
2022-09-04T16:10:53.384Z,31.10
2022-09-04T16:13:58.286Z,31.10
2022-09-04T16:16:35.450Z,31.00
2022-09-04T16:19:17.129Z,31.00
2022-09-04T16:21:59.800Z,30.90
2022-09-04T16:24:35.904Z,30.80
2022-09-04T16:27:11.204Z,30.80
2022-09-04T16:29:48.041Z,30.70
2022-09-04T16:32:23.293Z,30.70
2022-09-04T16:34:58.279Z,30.60
2022-09-04T16:37:35.990Z,30.60
2022-09-04T16:40:24.390Z,30.50
2022-09-04T16:42:59.942Z,30.50
2022-09-04T16:45:37.226Z,30.50
2022-09-04T16:48:33.846Z,30.40
2022-09-04T16:51:40.483Z,30.40
2022-09-04T16:54:10.620Z,30.30
2022-09-04T16:56:42.742Z,30.30
2022-09-04T16:59:23.525Z,30.20
2022-09-04T17:02:01.955Z,30.20
2022-09-04T17:04:40.249Z,30.20
2022-09-04T17:07:20.284Z,30.20
2022-09-04T17:10:03.552Z,30.10
2022-09-04T17:12:53.665Z,30.10
2022-09-04T17:15:31.956Z,30.10
2022-09-04T17:18:25.002Z,30.10
2022-09-04T17:25:05.736Z,30.10
2022-09-04T17:29:09.210Z,30.00
2022-09-04T17:29:13.596Z,29.90
2022-09-04T17:29:55.582Z,29.90
2022-09-04T17:36:31.410Z,29.80
2022-09-04T17:40:37.626Z,29.80
2022-09-04T17:40:55.963Z,29.80
2022-09-04T17:41:52.016Z,29.70
2022-09-04T17:44:47.205Z,29.70
2022-09-04T17:47:34.070Z,29.60
2022-09-04T17:50:03.264Z,29.50
2022-09-04T17:52:35.133Z,29.40
2022-09-04T17:55:08.521Z,29.30
2022-09-04T17:58:08.205Z,29.20
2022-09-04T18:01:14.617Z,29.20
2022-09-04T18:04:20.700Z,29.00
2022-09-04T18:07:00.342Z,29.00
2022-09-04T18:09:41.038Z,28.90
2022-09-04T18:12:21.330Z,28.90
2022-09-04T18:15:32.216Z,28.80
2022-09-04T18:18:09.621Z,28.70
2022-09-04T18:20:46.176Z,28.60
2022-09-04T18:23:51.203Z,28.60
2022-09-04T18:26:39.930Z,28.50
2022-09-04T18:31:55.773Z,28.40
2022-09-04T18:37:11.416Z,28.40
2022-09-04T18:37:20.119Z,28.20
2022-09-04T18:38:41.795Z,28.20
2022-09-04T18:47:00.312Z,28.10
2022-09-04T18:50:29.800Z,28.00
2022-09-04T18:50:37.750Z,27.90
2022-09-04T18:50:50.391Z,27.80
2022-09-04T18:53:18.575Z,27.70
2022-09-04T18:55:52.023Z,27.60
2022-09-04T18:58:48.756Z,27.50
2022-09-04T19:01:26.931Z,27.40
2022-09-04T19:04:01.730Z,27.30
2022-09-04T19:07:06.796Z,27.20
2022-09-04T19:10:05.400Z,27.10
2022-09-04T19:12:47.707Z,27.10
2022-09-04T19:15:50.920Z,27.00
2022-09-04T19:18:30.206Z,26.90
2022-09-04T19:21:35.678Z,26.80
2022-09-04T19:24:34.437Z,26.80
2022-09-04T19:27:33.860Z,26.70
2022-09-04T19:30:18.250Z,26.70
2022-09-04T19:33:12.801Z,26.60
2022-09-04T19:35:49.602Z,26.50
2022-09-04T19:45:53.509Z,26.50
2022-09-04T19:46:05.763Z,26.40
2022-09-04T19:46:16.094Z,26.30
2022-09-04T19:47:29.467Z,26.30
2022-09-04T19:53:17.517Z,26.20
2022-09-04T19:53:38.816Z,26.10
2022-09-04T19:56:26.844Z,26.00
2022-09-04T19:59:04.400Z,25.90
2022-09-04T20:01:46.117Z,25.80
2022-09-04T20:04:30.090Z,25.70
2022-09-04T20:07:04.234Z,25.70
2022-09-04T20:09:40.865Z,25.60
2022-09-04T20:12:21.730Z,25.60
2022-09-04T20:14:56.854Z,25.60
2022-09-04T20:18:09.946Z,25.50
2022-09-04T20:20:54.708Z,25.40
2022-09-04T20:23:34.569Z,25.40
2022-09-04T20:26:10.068Z,25.30
2022-09-04T20:28:51.140Z,25.20
2022-09-04T20:31:41.800Z,25.20
2022-09-04T20:34:34.810Z,25.10
2022-09-04T20:37:25.836Z,25.10
2022-09-04T20:40:05.994Z,25.00
2022-09-04T20:42:43.918Z,24.90
2022-09-04T20:50:25.868Z,24.90
2022-09-04T20:52:54.029Z,24.80
2022-09-04T20:53:00.572Z,24.80
2022-09-04T20:54:45.768Z,24.70
2022-09-04T21:03:11.376Z,24.70
2022-09-04T21:03:18.529Z,24.60
2022-09-04T21:03:29.447Z,24.60
2022-09-04T21:06:22.674Z,24.50
2022-09-04T21:09:07.481Z,24.40
2022-09-04T21:11:43.352Z,24.40
2022-09-04T21:14:22.187Z,24.30
2022-09-04T21:17:34.522Z,24.30
2022-09-04T21:21:00.652Z,24.20
2022-09-04T21:24:13.896Z,24.20
2022-09-04T21:27:32.008Z,24.10
2022-09-04T21:30:14.823Z,24.00
2022-09-04T21:33:26.831Z,24.00
2022-09-04T21:36:00.015Z,23.90
2022-09-04T21:39:03.480Z,23.90
2022-09-04T21:42:12.729Z,23.80
2022-09-04T21:45:22.128Z,23.80
2022-09-04T21:48:28.358Z,23.70
2022-09-04T21:51:31.815Z,23.70
2022-09-04T21:57:11.739Z,23.60
2022-09-04T22:02:27.023Z,23.50
2022-09-04T22:02:43.086Z,23.50
2022-09-04T22:04:47.095Z,23.40
2022-09-04T22:10:38.495Z,23.40
2022-09-04T22:13:38.499Z,23.30
2022-09-04T22:14:04.699Z,23.20
2022-09-04T22:17:13.151Z,23.20
2022-09-04T22:20:16.001Z,23.10
2022-09-04T22:23:56.931Z,23.10
2022-09-04T22:26:58.434Z,23.00
2022-09-04T22:29:50.108Z,22.90
2022-09-04T22:32:57.483Z,22.90
2022-09-04T22:36:17.864Z,22.90
2022-09-04T22:39:14.579Z,22.80
2022-09-04T22:42:29.159Z,22.70
2022-09-04T22:45:32.098Z,22.70
2022-09-04T22:48:28.154Z,22.60
2022-09-04T22:51:24.633Z,22.60
2022-09-04T22:54:29.743Z,22.50
2022-09-04T22:57:04.942Z,22.50
2022-09-04T23:00:09.354Z,22.40
2022-09-04T23:03:08.160Z,22.40
2022-09-04T23:10:34.021Z,22.30
2022-09-04T23:14:02.315Z,22.20
2022-09-04T23:14:02.317Z,22.30
2022-09-04T23:16:36.303Z,22.20
2022-09-04T23:26:30.867Z,22.10
2022-09-04T23:26:53.590Z,22.10
2022-09-04T23:27:09.351Z,22.00
2022-09-04T23:30:05.689Z,21.90
2022-09-04T23:33:28.060Z,21.90
2022-09-04T23:36:28.293Z,21.90
2022-09-04T23:39:53.070Z,21.80
2022-09-04T23:43:02.690Z,21.70
2022-09-04T23:46:24.934Z,21.70
2022-09-04T23:49:26.973Z,21.70
2022-09-04T23:52:05.094Z,21.60
2022-09-04T23:54:59.487Z,21.60
2022-09-04T23:57:38.550Z,21.60
